Terminal Aerodrome Forecast
Issued by NWS Jackson, KY

Home | Current Version | Previous Version | Text Only | Print | Product List | Glossary On
Versions: 1 2 3 4 5 6 7 8 9 10 11 12 13 14 15 16 17 18 19
000
FTUS43 KJKL 231138
TAFLOZ
TAF
KLOZ 231138Z 2312/2412 12010G20KT 6SM -SHRA BR SCT045 OVC070
     FM231700 12015KT P6SM VCSH OVC045
     FM232100 12010KT P6SM VCTS OVC050CB
     FM232300 10010KT P6SM VCSH OVC045
     FM240600 11005KT 6SM SHRA OVC040
     FM240900 10005KT 6SM SHRA OVC030=

USA.gov is the U.S. government's official web portal to all federal, state and local government web resources and services.